createdAt,value
2023-04-10T00:01:45.262Z,98208.59
2023-04-10T00:04:12.010Z,98182.91
2023-04-10T00:06:38.809Z,98197.72
2023-04-10T00:09:05.313Z,98178.75
2023-04-10T00:11:31.902Z,98196.88
2023-04-10T00:13:58.483Z,98197.78
2023-04-10T00:16:25.098Z,98199.44
2023-04-10T00:18:51.663Z,98204.63
2023-04-10T00:21:18.169Z,98178.38
2023-04-10T00:23:44.662Z,98188.22
2023-04-10T00:26:11.247Z,98195.16
2023-04-10T00:28:38.166Z,98194.34
2023-04-10T00:31:05.678Z,98197.72
2023-04-10T00:33:32.201Z,98191.78
2023-04-10T00:35:58.755Z,98182.41
2023-04-10T00:38:25.552Z,98135.06
2023-04-10T00:40:52.053Z,98175.69
2023-04-10T00:43:20.284Z,98159.03
2023-04-10T00:45:47.926Z,98170.38
2023-04-10T00:48:16.099Z,98167.03
2023-04-10T00:50:42.650Z,98154.94
2023-04-10T00:53:09.159Z,98159.19
2023-04-10T00:55:35.857Z,98176.50
2023-04-10T00:58:02.446Z,98168.78
2023-04-10T01:00:29.049Z,98174.75
2023-04-10T01:02:55.872Z,98174.75
2023-04-10T01:05:22.692Z,98168.78
2023-04-10T01:08:00.846Z,98163.69
2023-04-10T01:10:34.580Z,98132.34
2023-04-10T01:13:16.212Z,98167.91
2023-04-10T01:15:59.496Z,98167.91
2023-04-10T01:18:34.076Z,98155.75
2023-04-10T01:21:00.588Z,98149.75
2023-04-10T01:24:04.497Z,98167.91
2023-04-10T01:27:08.098Z,98167.91
2023-04-10T01:29:34.625Z,98159.31
2023-04-10T01:32:08.354Z,98160.25
2023-04-10T01:34:48.121Z,98161.06
2023-04-10T01:37:26.442Z,98163.59
2023-04-10T01:40:03.363Z,98162.78
2023-04-10T01:42:31.726Z,98152.47
2023-04-10T01:44:58.677Z,98154.22
2023-04-10T01:47:25.203Z,98149.97
2023-04-10T01:49:51.749Z,98146.72
2023-04-10T01:52:18.267Z,98149.19
2023-04-10T01:54:48.413Z,98129.09
2023-04-10T01:57:15.950Z,98149.28
2023-04-10T01:59:42.672Z,98149.28
2023-04-10T02:02:11.849Z,98150.88
2023-04-10T02:04:38.680Z,98140.53
2023-04-10T02:07:23.883Z,98155.16
2023-04-10T02:10:08.170Z,98146.59
2023-04-10T02:12:55.713Z,98125.00
2023-04-10T02:15:23.464Z,98141.19
2023-04-10T02:17:50.083Z,98148.16
2023-04-10T02:20:16.667Z,98151.81
2023-04-10T02:22:46.563Z,98146.66
2023-04-10T02:25:13.141Z,98140.75
2023-04-10T02:27:40.635Z,98145.78
2023-04-10T02:30:07.651Z,98133.91
2023-04-10T02:32:34.235Z,98128.53
2023-04-10T02:35:02.183Z,98142.34
2023-04-10T02:37:29.064Z,98138.94
2023-04-10T02:39:55.634Z,98152.59
2023-04-10T02:42:22.163Z,98140.59
2023-04-10T02:44:48.821Z,98138.06
2023-04-10T02:47:16.098Z,98142.34
2023-04-10T02:49:42.678Z,98145.84
2023-04-10T02:52:09.225Z,98149.19
2023-04-10T02:54:35.848Z,98150.13
2023-04-10T02:57:02.515Z,98150.94
2023-04-10T02:59:29.003Z,98153.50
2023-04-10T03:01:55.628Z,98144.19
2023-04-10T03:04:22.358Z,98146.72
2023-04-10T03:06:48.980Z,98139.94
2023-04-10T03:09:15.555Z,98146.66
2023-04-10T03:11:42.105Z,98144.97
2023-04-10T03:14:09.754Z,98130.94
2023-04-10T03:16:36.577Z,98139.78
2023-04-10T03:19:03.244Z,98145.03
2023-04-10T03:21:30.105Z,98141.47
2023-04-10T03:23:56.882Z,98135.13
2023-04-10T03:26:24.154Z,98140.38
2023-04-10T03:28:50.913Z,98156.91
2023-04-10T03:31:17.476Z,98160.31
2023-04-10T03:33:44.023Z,98157.69
2023-04-10T03:36:11.507Z,98150.94
2023-04-10T03:38:38.088Z,98144.09
2023-04-10T03:41:04.857Z,98149.28
2023-04-10T03:43:31.581Z,98148.38
2023-04-10T03:45:58.214Z,98153.41
2023-04-10T03:48:28.073Z,98153.50
2023-04-10T03:50:57.872Z,98158.59
2023-04-10T03:53:24.608Z,98155.16
2023-04-10T03:55:52.573Z,98149.19
2023-04-10T03:58:19.287Z,98151.81
2023-04-10T04:00:46.383Z,98153.50
2023-04-10T04:03:13.341Z,98154.38
2023-04-10T04:05:40.089Z,98153.28
2023-04-10T04:08:06.868Z,98149.97
2023-04-10T04:10:33.547Z,98156.03
2023-04-10T04:13:00.141Z,98153.50
2023-04-10T04:15:26.748Z,98159.47
2023-04-10T04:17:53.355Z,98158.59
2023-04-10T04:20:19.954Z,98162.56
2023-04-10T04:22:46.939Z,98164.56
2023-04-10T04:25:13.507Z,98161.06
2023-04-10T04:27:40.066Z,98159.41
2023-04-10T04:30:07.284Z,98167.03
2023-04-10T04:32:33.833Z,98165.34
2023-04-10T04:35:00.413Z,98173.00
2023-04-10T04:37:26.926Z,98165.72
2023-04-10T04:39:53.511Z,98180.56
2023-04-10T04:42:20.187Z,98174.69
2023-04-10T04:44:46.750Z,98176.44
2023-04-10T04:47:13.264Z,98175.47
2023-04-10T04:49:39.815Z,98179.06
2023-04-10T04:52:06.389Z,98174.63
2023-04-10T04:54:32.927Z,98166.69
2023-04-10T04:56:59.483Z,98177.38
2023-04-10T04:59:25.978Z,98171.47
2023-04-10T05:01:52.807Z,98151.31
2023-04-10T05:04:20.682Z,98178.25
2023-04-10T05:06:47.331Z,98178.25
2023-04-10T05:09:13.858Z,98185.09
2023-04-10T05:11:40.368Z,98183.34
2023-04-10T05:14:06.905Z,98192.75
2023-04-10T05:16:33.465Z,98189.31
2023-04-10T05:19:00.055Z,98189.31
2023-04-10T05:21:27.414Z,98198.63
2023-04-10T05:23:53.925Z,98100.00
2023-04-10T05:26:20.921Z,98202.06
2023-04-10T05:28:47.485Z,98202.06
2023-04-10T05:31:14.013Z,98190.97
2023-04-10T05:33:40.772Z,98198.63
2023-04-10T05:36:07.706Z,98189.31
2023-04-10T05:38:34.408Z,98197.84
2023-04-10T05:41:00.955Z,98202.88
2023-04-10T05:43:27.470Z,98203.72
2023-04-10T05:45:54.001Z,98206.28
2023-04-10T05:48:20.608Z,98205.44
2023-04-10T05:50:47.154Z,98219.91
2023-04-10T05:53:14.373Z,98212.19
2023-04-10T05:55:40.901Z,98213.06
2023-04-10T05:58:07.391Z,98211.38
2023-04-10T06:00:33.893Z,98210.53
2023-04-10T06:03:00.738Z,98217.34
2023-04-10T06:05:27.981Z,98201.84
2023-04-10T06:07:56.263Z,98204.53
2023-04-10T06:10:24.195Z,98193.47
2023-04-10T06:12:50.750Z,98205.44
2023-04-10T06:15:17.298Z,98201.09
2023-04-10T06:17:44.373Z,98193.53
2023-04-10T06:20:11.327Z,98189.09
2023-04-10T06:22:37.883Z,98188.34
2023-04-10T06:25:05.548Z,98189.25
2023-04-10T06:27:33.488Z,98183.13
2023-04-10T06:30:00.071Z,98181.59
2023-04-10T06:32:26.591Z,98177.38
2023-04-10T06:34:53.138Z,98179.13
2023-04-10T06:37:19.702Z,98179.13
2023-04-10T06:39:46.240Z,98178.25
2023-04-10T06:42:12.803Z,98179.13
2023-04-10T06:44:39.330Z,98178.31
2023-04-10T06:47:06.896Z,98161.88
2023-04-10T06:49:33.465Z,98168.94
2023-04-10T06:52:00.235Z,98176.50
2023-04-10T06:54:26.749Z,98174.91
2023-04-10T06:56:53.372Z,98174.91
2023-04-10T06:59:19.872Z,98180.00
2023-04-10T07:01:46.417Z,98176.66
2023-04-10T07:04:13.030Z,98175.75
2023-04-10T07:06:39.665Z,98173.22
2023-04-10T07:09:06.225Z,98170.66
2023-04-10T07:11:32.794Z,98172.34
2023-04-10T07:14:00.873Z,98166.44
2023-04-10T07:16:29.349Z,98055.31
2023-04-10T07:18:56.530Z,98174.03
2023-04-10T07:21:23.361Z,98175.69
2023-04-10T07:23:49.882Z,98178.31
2023-04-10T07:26:16.548Z,98179.19
2023-04-10T07:28:43.141Z,98169.81
2023-04-10T07:31:10.663Z,98168.03
2023-04-10T07:33:40.963Z,98177.47
2023-04-10T07:36:08.173Z,98176.66
2023-04-10T07:38:34.802Z,98176.56
2023-04-10T07:41:01.384Z,98178.31
2023-04-10T07:43:27.884Z,98184.28
2023-04-10T07:45:54.492Z,98186.84
2023-04-10T07:48:21.254Z,98184.28
2023-04-10T07:50:48.050Z,98170.66
2023-04-10T07:53:14.714Z,98174.09
2023-04-10T07:55:42.786Z,98172.44
2023-04-10T07:58:09.440Z,98169.00
2023-04-10T08:00:36.157Z,98168.19
2023-04-10T08:03:04.265Z,98168.19
2023-04-10T08:05:31.297Z,98163.09
2023-04-10T08:07:58.010Z,98159.69
2023-04-10T08:10:24.550Z,98158.00
2023-04-10T08:12:51.155Z,98155.50
2023-04-10T08:15:18.313Z,98147.66
2023-04-10T08:17:44.943Z,98153.78
2023-04-10T08:20:11.984Z,98154.59
2023-04-10T08:22:38.557Z,98152.03
2023-04-10T08:25:05.435Z,98153.78
2023-04-10T08:27:31.956Z,98146.13
2023-04-10T08:29:58.517Z,98147.78
2023-04-10T08:32:26.639Z,98152.88
2023-04-10T08:34:53.196Z,98155.44
2023-04-10T08:37:21.251Z,98148.53
2023-04-10T08:39:47.798Z,98147.72
2023-04-10T08:42:14.370Z,98149.50
2023-04-10T08:44:41.755Z,98153.72
2023-04-10T08:47:08.241Z,98144.25
2023-04-10T08:49:44.834Z,98146.72
2023-04-10T08:52:24.890Z,98142.56
2023-04-10T08:54:56.601Z,98144.31
2023-04-10T08:57:23.176Z,98134.91
2023-04-10T08:59:51.570Z,98137.44
2023-04-10T09:02:18.922Z,98145.09
2023-04-10T09:04:54.591Z,98142.56
2023-04-10T09:07:23.066Z,98124.28
2023-04-10T09:09:49.583Z,98128.13
2023-04-10T09:12:16.327Z,98129.81
2023-04-10T09:14:42.913Z,98133.16
2023-04-10T09:17:25.019Z,98131.56
2023-04-10T09:19:55.409Z,98117.88
2023-04-10T09:22:35.094Z,98123.84
2023-04-10T09:25:02.511Z,98116.28
2023-04-10T09:27:35.671Z,98120.50
2023-04-10T09:30:02.579Z,98126.47
2023-04-10T09:32:45.324Z,98121.31
2023-04-10T09:35:13.117Z,98111.81
2023-04-10T09:37:40.870Z,98111.19
2023-04-10T09:40:21.328Z,98112.84
2023-04-10T09:42:47.887Z,98117.94
2023-04-10T09:45:14.404Z,98092.09
2023-04-10T09:47:40.923Z,98099.22
2023-04-10T09:50:07.896Z,98104.31
2023-04-10T09:52:35.433Z,98098.38
2023-04-10T09:55:04.274Z,98097.56
2023-04-10T09:57:31.909Z,98087.28
2023-04-10T10:00:05.191Z,98082.19
2023-04-10T10:02:32.226Z,98094.03
2023-04-10T10:05:01.816Z,98097.47
2023-04-10T10:07:28.417Z,98077.75
2023-04-10T10:09:55.006Z,98074.53
2023-04-10T10:12:47.641Z,98070.31
2023-04-10T10:15:42.474Z,98070.31
2023-04-10T10:18:41.411Z,98054.97
2023-04-10T10:21:09.353Z,98051.59
2023-04-10T10:23:36.659Z,98047.31
2023-04-10T10:26:05.566Z,98048.16
2023-04-10T10:28:32.956Z,98036.97
2023-04-10T10:30:59.945Z,98038.03
2023-04-10T10:33:26.556Z,98032.94
2023-04-10T10:35:53.101Z,98026.19
2023-04-10T10:38:19.733Z,98016.59
2023-04-10T10:40:51.960Z,98016.66
2023-04-10T10:43:27.893Z,98025.38
2023-04-10T10:46:02.270Z,98020.34
2023-04-10T10:48:28.818Z,98010.13
2023-04-10T10:50:57.501Z,98018.75
2023-04-10T10:53:34.724Z,97995.38
2023-04-10T10:56:19.316Z,98005.13
2023-04-10T10:58:49.814Z,98005.13
2023-04-10T11:01:16.756Z,98006.88
2023-04-10T11:03:46.590Z,97993.25
2023-04-10T11:06:16.972Z,98001.78
2023-04-10T11:08:45.991Z,97995.72
2023-04-10T11:11:23.292Z,97993.19
2023-04-10T11:13:49.764Z,97985.53
2023-04-10T11:16:16.394Z,97980.44
2023-04-10T11:18:56.115Z,97978.69
2023-04-10T11:21:32.823Z,97970.16
2023-04-10T11:23:59.423Z,97962.53
2023-04-10T11:26:35.076Z,97959.97
2023-04-10T11:29:02.413Z,97942.41
2023-04-10T11:31:28.942Z,97961.63
2023-04-10T11:34:02.841Z,97961.63
2023-04-10T11:36:29.543Z,97962.38
2023-04-10T11:39:00.577Z,97956.53
2023-04-10T11:41:34.191Z,97957.34
2023-04-10T11:44:01.837Z,97949.78
2023-04-10T11:46:29.027Z,97954.88
2023-04-10T11:48:57.897Z,97948.97
2023-04-10T11:51:24.423Z,97934.34
2023-04-10T11:53:51.105Z,97947.38
2023-04-10T11:56:18.904Z,97942.13
2023-04-10T11:58:45.797Z,97941.44
2023-04-10T12:01:14.567Z,97940.59
2023-04-10T12:03:42.423Z,97934.63
2023-04-10T12:06:13.287Z,97933.81
2023-04-10T12:08:46.000Z,97929.59
2023-04-10T12:11:13.135Z,97930.47
2023-04-10T12:13:39.877Z,97932.13
2023-04-10T12:16:09.889Z,97933.81
2023-04-10T12:18:36.741Z,97921.75
2023-04-10T12:21:05.031Z,97914.97
2023-04-10T12:23:32.102Z,97916.66
2023-04-10T12:26:15.635Z,97916.66
2023-04-10T12:28:52.331Z,97906.19
2023-04-10T12:31:19.110Z,97920.16
2023-04-10T12:33:46.453Z,97903.69
2023-04-10T12:36:23.018Z,97898.66
2023-04-10T12:38:49.512Z,97893.50
2023-04-10T12:41:22.083Z,97903.91
2023-04-10T12:43:49.520Z,97886.13
2023-04-10T12:46:26.766Z,97894.59
2023-04-10T12:48:54.026Z,97892.03
2023-04-10T12:51:20.812Z,97886.06
2023-04-10T12:53:47.401Z,97881.84
2023-04-10T12:56:14.549Z,97877.47
2023-04-10T12:58:42.632Z,97867.13
2023-04-10T13:01:09.769Z,97875.78
2023-04-10T13:03:39.611Z,97868.97
2023-04-10T13:06:07.389Z,97870.75
2023-04-10T13:08:36.955Z,97868.22
2023-04-10T13:11:03.630Z,97840.47
2023-04-10T13:13:33.306Z,97843.94
2023-04-10T13:16:00.215Z,97854.66
2023-04-10T13:18:26.876Z,97855.47
2023-04-10T13:20:53.507Z,97843.34
2023-04-10T13:23:20.020Z,97844.19
2023-04-10T13:25:46.837Z,97839.22
2023-04-10T13:28:13.368Z,97838.50
2023-04-10T13:30:40.692Z,97828.19
2023-04-10T13:33:08.006Z,97822.22
2023-04-10T13:35:34.683Z,97816.41
2023-04-10T13:38:01.306Z,97818.06
2023-04-10T13:40:27.868Z,97823.94
2023-04-10T13:42:54.523Z,97791.22
2023-04-10T13:45:21.068Z,97808.78
2023-04-10T13:47:47.740Z,97813.03
2023-04-10T13:50:14.251Z,97799.06
2023-04-10T13:52:40.770Z,97807.91
2023-04-10T13:55:07.807Z,97797.47
2023-04-10T13:57:34.372Z,97800.41
2023-04-10T14:00:01.426Z,97786.72
2023-04-10T14:02:28.176Z,97786.84
2023-04-10T14:04:54.869Z,97772.38
2023-04-10T14:07:21.463Z,97768.25
2023-04-10T14:09:48.534Z,97772.50
2023-04-10T14:12:19.261Z,97774.22
2023-04-10T14:14:46.116Z,97777.66
2023-04-10T14:17:12.693Z,97771.72
2023-04-10T14:19:39.887Z,97764.09
2023-04-10T14:22:06.510Z,97763.19
2023-04-10T14:24:33.251Z,97730.44
2023-04-10T14:27:01.867Z,97754.84
2023-04-10T14:29:37.474Z,97748.66
2023-04-10T14:32:06.033Z,97765.09
2023-04-10T14:34:32.601Z,97760.00
2023-04-10T14:36:59.673Z,97746.88
2023-04-10T14:39:26.337Z,97745.22
2023-04-10T14:41:52.955Z,97748.03
2023-04-10T14:44:19.493Z,97750.72
2023-04-10T14:46:46.256Z,97741.38
2023-04-10T14:49:14.136Z,97732.00
2023-04-10T14:51:43.319Z,97725.16
2023-04-10T14:54:09.827Z,97731.19
2023-04-10T14:56:36.674Z,97722.66
2023-04-10T14:59:03.247Z,97724.38
2023-04-10T15:01:29.805Z,97715.94
2023-04-10T15:03:56.569Z,97706.63
2023-04-10T15:06:23.426Z,97697.03
2023-04-10T15:08:49.972Z,97699.00
2023-04-10T15:11:16.674Z,97699.00
2023-04-10T15:13:43.269Z,97681.56
2023-04-10T15:16:09.830Z,97692.88
2023-04-10T15:18:36.363Z,97691.41
2023-04-10T15:21:03.027Z,97675.75
2023-04-10T15:23:29.606Z,97691.41
2023-04-10T15:25:56.255Z,97692.19
2023-04-10T15:28:22.834Z,97684.59
2023-04-10T15:30:52.431Z,97681.13
2023-04-10T15:33:19.002Z,97665.59
2023-04-10T15:35:48.556Z,97672.63
2023-04-10T15:38:15.061Z,97671.78
2023-04-10T15:40:41.648Z,97674.34
2023-04-10T15:43:08.184Z,97678.66
2023-04-10T15:45:35.969Z,97677.84
2023-04-10T15:48:04.566Z,97671.00
2023-04-10T15:50:31.354Z,97677.84
2023-04-10T15:52:57.904Z,97670.19
2023-04-10T15:55:24.445Z,97658.19
2023-04-10T15:57:50.996Z,97655.72
2023-04-10T16:00:17.811Z,97654.06
2023-04-10T16:02:44.683Z,97642.03
2023-04-10T16:05:11.539Z,97647.34
2023-04-10T16:07:39.116Z,97643.81
2023-04-10T16:10:06.478Z,97643.13
2023-04-10T16:12:33.034Z,97644.81
2023-04-10T16:14:59.607Z,97643.19
2023-04-10T16:17:26.165Z,97638.94
2023-04-10T16:19:53.899Z,97645.81
2023-04-10T16:22:20.437Z,97639.00
2023-04-10T16:24:47.011Z,97639.81
2023-04-10T16:27:13.540Z,97636.38
2023-04-10T16:29:40.329Z,97628.75
2023-04-10T16:32:06.946Z,97632.22
2023-04-10T16:34:33.448Z,97629.69
2023-04-10T16:36:59.921Z,97627.06
2023-04-10T16:39:26.499Z,97634.72
2023-04-10T16:41:53.097Z,97630.38
2023-04-10T16:44:19.679Z,97630.38
2023-04-10T16:46:46.434Z,97627.13
2023-04-10T16:49:13.034Z,97620.97
2023-04-10T16:51:39.587Z,97621.91
2023-04-10T16:54:06.261Z,97614.25
2023-04-10T16:56:32.793Z,97609.00
2023-04-10T16:58:59.412Z,97609.06
2023-04-10T17:01:26.085Z,97602.16
2023-04-10T17:03:53.039Z,97605.69
2023-04-10T17:06:19.787Z,97597.06
2023-04-10T17:08:46.477Z,97593.63
2023-04-10T17:11:16.230Z,97595.19
2023-04-10T17:13:42.870Z,97598.78
2023-04-10T17:16:09.426Z,97593.63
2023-04-10T17:18:35.988Z,97581.59
2023-04-10T17:21:02.506Z,97578.22
2023-04-10T17:23:29.648Z,97585.09
2023-04-10T17:25:56.174Z,97576.63
2023-04-10T17:28:22.726Z,97580.00
2023-04-10T17:30:49.345Z,97551.47
2023-04-10T17:33:15.992Z,97574.06
2023-04-10T17:35:42.605Z,97577.41
2023-04-10T17:38:09.171Z,97577.41
2023-04-10T17:40:36.889Z,97569.69
2023-04-10T17:43:03.430Z,97566.34
2023-04-10T17:45:29.940Z,97563.75
2023-04-10T17:47:56.594Z,97555.22
2023-04-10T17:50:23.376Z,97556.09
2023-04-10T17:52:49.964Z,97534.31
2023-04-10T17:55:20.641Z,97562.88
2023-04-10T17:57:48.605Z,97551.78
2023-04-10T18:00:16.112Z,97554.41
2023-04-10T18:02:43.278Z,97541.44
2023-04-10T18:05:09.983Z,97548.47
2023-04-10T18:07:37.413Z,97542.47
2023-04-10T18:10:05.185Z,97534.78
2023-04-10T18:12:31.915Z,97528.84
2023-04-10T18:14:58.482Z,97528.75
2023-04-10T18:17:25.088Z,97527.91
2023-04-10T18:19:51.692Z,97537.38
2023-04-10T18:22:19.024Z,97529.72
2023-04-10T18:24:48.610Z,97533.94
2023-04-10T18:27:15.265Z,97536.50
2023-04-10T18:29:42.687Z,97535.66
2023-04-10T18:32:09.303Z,97540.69
2023-04-10T18:34:35.934Z,97531.34
2023-04-10T18:37:02.567Z,97541.59
2023-04-10T18:39:29.103Z,97519.78
2023-04-10T18:41:57.713Z,97539.75
2023-04-10T18:44:24.298Z,97547.53
2023-04-10T18:47:01.369Z,97545.78
2023-04-10T18:49:31.063Z,97538.16
2023-04-10T18:51:57.685Z,97529.34
2023-04-10T18:54:27.030Z,97538.22
2023-04-10T18:56:53.661Z,97485.00
2023-04-10T18:59:20.297Z,97534.66
2023-04-10T19:01:46.925Z,97520.88
2023-04-10T19:04:13.745Z,97489.94
2023-04-10T19:06:41.106Z,97516.09
2023-04-10T19:09:08.760Z,97508.47
2023-04-10T19:11:35.359Z,97507.66
2023-04-10T19:14:01.972Z,97498.09
2023-04-10T19:16:28.576Z,97507.66
2023-04-10T19:18:55.444Z,97491.31
2023-04-10T19:21:22.135Z,97490.56
2023-04-10T19:23:49.302Z,97486.22
2023-04-10T19:26:16.037Z,97493.09
2023-04-10T19:28:42.579Z,97490.63
2023-04-10T19:31:09.224Z,97482.97
2023-04-10T19:33:35.801Z,97482.13
2023-04-10T19:36:02.399Z,97484.63
2023-04-10T19:38:32.768Z,97487.13
2023-04-10T19:40:59.387Z,97438.28
2023-04-10T19:43:25.926Z,97494.00
2023-04-10T19:45:53.374Z,97485.28
2023-04-10T19:48:19.935Z,97494.88
2023-04-10T19:50:46.573Z,97484.56
2023-04-10T19:53:15.520Z,97489.66
2023-04-10T19:55:43.803Z,97497.38
2023-04-10T19:58:13.424Z,97493.16
2023-04-10T20:00:47.571Z,97482.75
2023-04-10T20:03:16.176Z,97494.75
2023-04-10T20:05:42.935Z,97479.53
2023-04-10T20:08:09.579Z,97482.97
2023-04-10T20:10:36.173Z,97481.28
2023-04-10T20:13:02.705Z,97479.56
2023-04-10T20:15:29.244Z,97479.56
2023-04-10T20:17:55.820Z,97464.06
2023-04-10T20:20:22.329Z,97476.19
2023-04-10T20:22:49.002Z,97471.00
2023-04-10T20:25:15.772Z,97451.03
2023-04-10T20:27:42.286Z,97482.97
2023-04-10T20:30:09.834Z,97475.31
2023-04-10T20:32:36.892Z,97464.28
2023-04-10T20:35:03.791Z,97478.75
2023-04-10T20:37:30.317Z,97477.88
2023-04-10T20:39:56.920Z,97472.72
2023-04-10T20:42:23.466Z,97472.78
2023-04-10T20:44:50.060Z,97469.38
2023-04-10T20:47:16.705Z,97462.56
2023-04-10T20:49:43.327Z,97457.47
2023-04-10T20:52:09.906Z,97447.06
2023-04-10T20:54:36.401Z,97436.13
2023-04-10T20:57:05.728Z,97430.88
2023-04-10T20:59:32.847Z,97422.91
2023-04-10T21:01:59.479Z,97473.59
2023-04-10T21:04:26.030Z,97472.72
2023-04-10T21:06:52.765Z,97475.25
2023-04-10T21:09:19.776Z,97471.00
2023-04-10T21:11:46.359Z,97457.38
2023-04-10T21:14:13.216Z,97456.53
2023-04-10T21:16:42.489Z,97466.72
2023-04-10T21:19:09.411Z,97464.16
2023-04-10T21:21:35.920Z,97465.84
2023-04-10T21:24:02.511Z,97465.84
2023-04-10T21:26:29.053Z,97471.00
2023-04-10T21:28:55.806Z,97459.91
2023-04-10T21:31:22.514Z,97440.13
2023-04-10T21:33:49.100Z,97448.94
2023-04-10T21:36:15.873Z,97441.97
2023-04-10T21:38:42.385Z,97435.25
2023-04-10T21:41:08.930Z,97434.47
2023-04-10T21:43:35.568Z,97424.28
2023-04-10T21:46:03.111Z,97412.25
2023-04-10T21:48:29.949Z,97406.44
2023-04-10T21:50:56.507Z,97409.03
2023-04-10T21:53:23.059Z,97399.50
2023-04-10T21:55:50.258Z,97411.66
2023-04-10T21:58:16.837Z,97410.81
2023-04-10T22:00:46.934Z,97409.00
2023-04-10T22:03:20.144Z,97407.44
2023-04-10T22:05:48.884Z,97405.75
2023-04-10T22:08:16.017Z,97383.50
2023-04-10T22:10:45.410Z,97393.84
2023-04-10T22:13:19.784Z,97388.75
2023-04-10T22:15:54.477Z,97383.44
2023-04-10T22:18:21.074Z,97385.41
2023-04-10T22:20:47.619Z,97380.25
2023-04-10T22:23:14.154Z,97380.38
2023-04-10T22:25:40.715Z,97373.56
2023-04-10T22:28:07.228Z,97349.63
2023-04-10T22:30:34.486Z,97355.66
2023-04-10T22:33:01.081Z,97354.06
2023-04-10T22:35:27.791Z,97359.16
2023-04-10T22:37:54.395Z,97340.94
2023-04-10T22:40:20.952Z,97371.91
2023-04-10T22:42:48.499Z,97350.47
2023-04-10T22:45:15.619Z,97360.88
2023-04-10T22:47:42.128Z,97340.31
2023-04-10T22:50:08.847Z,97351.56
2023-04-10T22:52:36.223Z,97356.66
2023-04-10T22:55:04.252Z,97354.09
2023-04-10T22:57:30.803Z,97323.88
2023-04-10T22:59:59.486Z,97325.81
2023-04-10T23:02:27.559Z,97332.88
2023-04-10T23:04:54.448Z,97327.72
2023-04-10T23:07:21.100Z,97316.63
2023-04-10T23:09:47.660Z,97305.50
2023-04-10T23:12:14.190Z,97307.38
2023-04-10T23:14:40.749Z,97309.09
2023-04-10T23:17:07.245Z,97313.38
2023-04-10T23:19:33.800Z,97319.28
2023-04-10T23:22:00.487Z,97306.53
2023-04-10T23:24:26.999Z,97300.38
2023-04-10T23:26:53.479Z,97313.31
2023-04-10T23:29:19.989Z,97301.44
2023-04-10T23:31:46.592Z,97293.78
2023-04-10T23:34:13.239Z,97273.84
2023-04-10T23:36:39.739Z,97294.63
2023-04-10T23:39:06.248Z,97289.44
2023-04-10T23:41:33.376Z,97279.34
2023-04-10T23:43:59.913Z,97269.03
2023-04-10T23:46:26.611Z,97266.53
2023-04-10T23:48:54.859Z,97259.78
2023-04-10T23:51:21.582Z,97257.19
2023-04-10T23:53:48.352Z,97245.34
2023-04-10T23:56:14.956Z,97245.25
2023-04-10T23:58:41.522Z,97247.75
